Time;durP1;ratioP1;P1;durP2;ratioP2;P2;SDS_P1;SDS_P2;PMS_P1;PMS_P2;Temp;Humidity;BMP_temperature;BMP_pressure;BME280_temperature;BME280_humidity;BME280_pressure;Samples;Min_cycle;Max_cycle;Signal;HPM_P1;HPM_P2
2022/10/19 00:01:03;;;;;;;81.30;38.10;;;9.70;99.90;;;;;;5101996;28;20701;-87
2022/10/19 00:03:29;;;;;;;74.50;19.75;;;9.80;99.90;;;;;;5102684;28;20641;-87
2022/10/19 00:05:55;;;;;;;74.20;19.03;;;9.90;99.90;;;;;;5084494;28;20232;-87
2022/10/19 00:08:21;;;;;;;73.70;19.27;;;9.90;99.90;;;;;;5101625;28;20424;-87
2022/10/19 00:10:46;;;;;;;73.27;17.77;;;10.00;99.90;;;;;;5102196;28;20250;-87
2022/10/19 00:13:12;;;;;;;72.00;17.23;;;10.10;99.90;;;;;;5083842;28;20187;-87
2022/10/19 00:15:39;;;;;;;80.97;19.90;;;10.10;99.90;;;;;;5102371;28;20235;-87
2022/10/19 00:18:05;;;;;;;78.38;33.88;;;10.00;99.90;;;;;;5082905;28;20167;-87
2022/10/19 00:20:31;;;;;;;81.47;34.28;;;9.90;99.90;;;;;;5082607;28;20163;-87
2022/10/19 00:22:56;;;;;;;79.77;39.33;;;9.80;99.90;;;;;;5102349;28;20186;-87
2022/10/19 00:25:22;;;;;;;78.90;33.47;;;9.80;99.90;;;;;;5101223;28;20162;-87
2022/10/19 00:27:48;;;;;;;79.03;38.57;;;9.70;99.90;;;;;;5101634;28;20159;-87
2022/10/19 00:30:13;;;;;;;76.40;30.77;;;9.60;99.90;;;;;;5081910;28;20397;-87
2022/10/19 00:32:39;;;;;;;75.70;21.37;;;9.60;99.90;;;;;;5100708;28;20159;-87
2022/10/19 00:35:05;;;;;;;79.20;22.60;;;9.50;99.90;;;;;;5100843;28;20236;-87
2022/10/19 00:37:31;;;;;;;75.35;19.08;;;9.50;99.90;;;;;;5101603;28;20651;-87
2022/10/19 00:39:57;;;;;;;70.33;16.83;;;9.50;99.90;;;;;;5101848;28;20184;-87
2022/10/19 00:42:22;;;;;;;70.70;14.67;;;9.50;99.90;;;;;;5100992;28;20244;-87
2022/10/19 00:44:48;;;;;;;72.10;15.80;;;9.50;99.90;;;;;;5101152;28;20220;-87
2022/10/19 00:47:14;;;;;;;69.50;14.93;;;9.40;99.90;;;;;;5082943;28;20193;-87
2022/10/19 00:49:43;;;;;;;72.85;16.92;;;9.40;99.90;;;;;;5102282;28;20198;-87
2022/10/19 00:52:13;;;;;;;69.28;14.27;;;9.30;99.90;;;;;;5101545;28;20167;-87
2022/10/19 00:54:41;;;;;;;70.38;12.80;;;9.20;99.90;;;;;;5101362;28;20226;-87
2022/10/19 00:57:08;;;;;;;70.00;13.98;;;9.20;99.90;;;;;;5101621;28;20159;-87
2022/10/19 00:59:35;;;;;;;71.78;15.38;;;9.10;99.90;;;;;;5099479;28;20681;-87
2022/10/19 01:02:03;;;;;;;73.03;15.32;;;9.10;99.90;;;;;;5100854;28;20624;-86
2022/10/19 01:04:31;;;;;;;71.25;15.80;;;9.10;99.90;;;;;;5101031;28;20669;-87
2022/10/19 01:06:58;;;;;;;71.43;18.00;;;9.00;99.90;;;;;;5100134;28;20164;-87
2022/10/19 01:09:24;;;;;;;72.65;17.88;;;9.00;99.90;;;;;;5098961;28;20187;-87
2022/10/19 01:12:17;;;;;;;75.00;14.17;;;9.00;99.90;;;;;;5099391;28;20178;-87
2022/10/19 01:14:46;;;;;;;71.25;15.50;;;8.90;99.90;;;;;;5100983;28;20199;-87
2022/10/19 01:17:39;;;;;;;74.25;16.30;;;8.90;99.90;;;;;;5101174;28;20150;-87
2022/10/19 01:20:42;;;;;;;75.97;16.02;;;8.90;99.90;;;;;;5098714;28;20187;-87
2022/10/19 01:23:35;;;;;;;70.63;16.58;;;8.90;99.90;;;;;;5100511;28;20166;-87
2022/10/19 01:26:15;;;;;;;73.55;18.45;;;8.90;99.90;;;;;;5081854;28;20162;-87
2022/10/19 01:28:52;;;;;;;73.00;18.85;;;8.90;99.90;;;;;;5100612;28;20179;-87
2022/10/19 01:31:21;;;;;;;71.10;16.23;;;8.90;99.90;;;;;;5100171;28;20151;-86
2022/10/19 01:34:07;;;;;;;70.13;12.55;;;8.80;99.90;;;;;;5082348;28;20290;-87
2022/10/19 01:37:02;;;;;;;70.65;15.88;;;8.80;99.90;;;;;;5080604;28;20159;-87
2022/10/19 01:39:37;;;;;;;70.25;16.42;;;8.80;99.90;;;;;;5100515;28;20183;-86
2022/10/19 01:42:11;;;;;;;72.25;15.57;;;8.80;99.90;;;;;;5100188;28;20222;-87
2022/10/19 01:44:40;;;;;;;72.78;17.20;;;8.70;99.90;;;;;;5100225;28;20150;-87
2022/10/19 01:47:29;;;;;;;74.28;18.20;;;8.70;99.90;;;;;;5100922;28;20167;-87
2022/10/19 01:49:57;;;;;;;73.55;15.57;;;8.70;99.90;;;;;;5100924;28;20183;-87
2022/10/19 01:52:26;;;;;;;73.50;18.77;;;8.70;99.90;;;;;;5098327;28;20168;-87
2022/10/19 01:54:56;;;;;;;71.18;14.20;;;8.70;99.90;;;;;;5081322;28;20194;-87
2022/10/19 01:57:51;;;;;;;74.65;15.85;;;8.60;99.90;;;;;;5101061;28;20171;-87
2022/10/19 02:00:17;;;;;;;70.82;16.67;;;8.70;99.90;;;;;;5080054;28;20181;-87
2022/10/19 02:02:47;;;;;;;74.03;20.23;;;8.70;99.90;;;;;;5082235;28;20174;-87
2022/10/19 02:05:16;;;;;;;76.70;15.43;;;8.60;99.90;;;;;;5098813;28;20167;-86
2022/10/19 02:07:47;;;;;;;78.68;15.45;;;8.60;99.90;;;;;;5097161;28;20166;-86
2022/10/19 02:10:13;;;;;;;73.55;19.35;;;8.60;99.90;;;;;;5097546;28;20179;-86
2022/10/19 02:12:40;;;;;;;80.63;22.63;;;8.60;99.90;;;;;;5079190;28;20179;-86
2022/10/19 02:15:13;;;;;;;76.15;19.77;;;8.70;99.90;;;;;;5098538;28;20255;-86
2022/10/19 02:17:44;;;;;;;70.93;14.15;;;8.60;99.90;;;;;;5098913;28;20510;-86
2022/10/19 02:20:10;;;;;;;78.80;14.00;;;8.60;99.90;;;;;;5097587;28;20187;-85
2022/10/19 02:22:36;;;;;;;72.80;13.38;;;8.60;99.90;;;;;;5098723;28;20185;-86
2022/10/19 02:25:02;;;;;;;77.20;12.33;;;8.60;99.90;;;;;;5098501;28;20198;-87
2022/10/19 02:27:28;;;;;;;72.32;12.32;;;8.50;99.90;;;;;;5098973;28;20171;-86
2022/10/19 02:29:54;;;;;;;77.53;14.93;;;8.50;99.90;;;;;;5078963;28;20240;-86
2022/10/19 02:32:20;;;;;;;77.47;13.70;;;8.60;99.90;;;;;;5097708;28;20174;-85
2022/10/19 02:34:46;;;;;;;77.03;14.18;;;8.60;99.90;;;;;;5098740;28;20436;-86
2022/10/19 02:37:12;;;;;;;73.63;14.77;;;8.60;99.90;;;;;;5081080;28;20186;-86
2022/10/19 02:39:38;;;;;;;73.03;17.07;;;8.60;99.90;;;;;;5081556;28;20662;-87
2022/10/19 02:42:11;;;;;;;75.75;15.90;;;8.60;99.90;;;;;;5099608;28;20612;-86
2022/10/19 02:44:46;;;;;;;71.78;16.90;;;8.60;99.90;;;;;;5081102;28;20170;-86
2022/10/19 02:47:17;;;;;;;73.43;19.30;;;8.60;99.90;;;;;;5099226;28;20143;-86
2022/10/19 02:49:43;;;;;;;74.20;17.77;;;8.70;99.90;;;;;;5099127;28;20182;-86
2022/10/19 02:52:11;;;;;;;73.60;16.55;;;8.70;99.90;;;;;;5098717;28;20163;-86
2022/10/19 02:54:39;;;;;;;84.28;16.08;;;8.70;99.90;;;;;;5100597;28;20214;-86
2022/10/19 02:57:18;;;;;;;82.57;16.52;;;8.80;99.90;;;;;;5084078;28;20186;-86
2022/10/19 02:59:44;;;;;;;82.50;15.88;;;8.80;99.90;;;;;;5101703;28;20204;-87
2022/10/19 03:02:10;;;;;;;77.97;14.95;;;8.90;99.90;;;;;;5101854;28;20192;-85
2022/10/19 03:04:36;;;;;;;81.37;16.97;;;8.90;99.90;;;;;;5101009;28;20187;-86
2022/10/19 03:07:01;;;;;;;80.23;15.70;;;8.80;99.90;;;;;;5101567;28;20939;-86
2022/10/19 03:09:27;;;;;;;81.93;15.17;;;8.80;99.90;;;;;;5082629;28;20198;-87
2022/10/19 03:11:55;;;;;;;80.63;15.20;;;8.80;99.90;;;;;;5083339;28;20175;-87
2022/10/19 03:14:20;;;;;;;74.70;14.88;;;8.80;99.90;;;;;;5082047;28;20191;-87
2022/10/19 03:16:46;;;;;;;75.10;16.67;;;8.80;99.90;;;;;;5082857;28;20212;-86
2022/10/19 03:19:12;;;;;;;73.57;16.27;;;8.70;99.90;;;;;;5101201;28;20927;-86
2022/10/19 03:21:38;;;;;;;74.38;16.20;;;8.60;99.90;;;;;;5100449;28;20174;-87
2022/10/19 03:24:04;;;;;;;75.77;15.00;;;8.60;99.90;;;;;;5099604;28;20170;-85
2022/10/19 03:26:30;;;;;;;77.47;15.57;;;8.60;99.90;;;;;;5101072;28;20405;-86
2022/10/19 03:28:55;;;;;;;77.47;17.03;;;8.60;99.90;;;;;;5100627;28;20888;-86
2022/10/19 03:31:21;;;;;;;77.00;16.53;;;8.60;99.90;;;;;;5101061;28;20170;-86
2022/10/19 03:33:46;;;;;;;72.70;14.30;;;8.60;99.90;;;;;;5082281;28;20191;-86
2022/10/19 03:36:22;;;;;;;73.50;14.17;;;8.60;99.90;;;;;;5082269;28;20163;-86
2022/10/19 03:38:54;;;;;;;73.80;16.90;;;8.50;99.90;;;;;;5100534;28;20666;-86
2022/10/19 03:41:21;;;;;;;76.50;18.33;;;8.50;99.90;;;;;;5099030;28;20167;-86
2022/10/19 03:43:47;;;;;;;73.10;15.10;;;8.50;99.90;;;;;;5100745;28;20216;-86
2022/10/19 03:46:13;;;;;;;86.60;15.50;;;8.50;99.90;;;;;;5100091;28;20564;-86
2022/10/19 03:48:38;;;;;;;74.43;16.33;;;8.60;99.90;;;;;;5100632;28;20420;-87
2022/10/19 03:51:07;;;;;;;85.80;15.27;;;8.60;99.90;;;;;;5081951;28;20515;-87
2022/10/19 03:53:33;;;;;;;77.57;15.50;;;8.50;99.90;;;;;;5082203;28;20195;-86
2022/10/19 03:56:18;;;;;;;76.30;17.02;;;8.50;99.90;;;;;;5100442;28;20155;-86
2022/10/19 03:58:46;;;;;;;79.15;15.30;;;8.50;99.90;;;;;;5100155;28;20182;-87
2022/10/19 04:01:16;;;;;;;78.18;16.65;;;8.50;99.90;;;;;;5100361;28;20159;-85
2022/10/19 04:03:43;;;;;;;77.20;16.70;;;8.50;99.90;;;;;;5100493;28;20165;-86
2022/10/19 04:06:14;;;;;;;73.93;15.68;;;8.50;99.90;;;;;;5100449;28;20202;-86
2022/10/19 04:08:40;;;;;;;75.85;17.27;;;8.50;99.90;;;;;;5082716;28;20674;-85
2022/10/19 04:11:11;;;;;;;82.40;16.60;;;8.50;99.90;;;;;;5100899;28;20159;-87
2022/10/19 04:13:37;;;;;;;76.05;17.50;;;8.60;99.90;;;;;;5082920;28;20674;-86
2022/10/19 04:16:06;;;;;;;81.43;18.80;;;8.50;99.90;;;;;;5101297;28;20189;-85
2022/10/19 04:18:32;;;;;;;94.40;17.92;;;8.60;99.90;;;;;;5100879;28;20471;-86
2022/10/19 04:21:03;;;;;;;80.30;21.67;;;8.70;99.90;;;;;;5100793;28;20504;-86
2022/10/19 04:23:32;;;;;;;81.35;22.35;;;8.70;99.90;;;;;;5101448;28;20409;-86
2022/10/19 04:26:07;;;;;;;76.45;20.80;;;8.70;99.90;;;;;;5100520;28;20650;-86
2022/10/19 04:28:33;;;;;;;89.50;21.05;;;8.70;99.90;;;;;;5100763;28;20210;-85
2022/10/19 04:31:04;;;;;;;77.63;16.98;;;8.70;99.90;;;;;;5100963;28;20574;-85
2022/10/19 04:33:30;;;;;;;76.40;22.73;;;8.70;99.90;;;;;;5100978;28;20195;-86
2022/10/19 04:36:00;;;;;;;78.53;21.10;;;8.70;99.90;;;;;;5100813;28;20594;-85
2022/10/19 04:38:26;;;;;;;77.47;22.88;;;8.70;99.90;;;;;;5099857;28;20425;-86
2022/10/19 04:40:52;;;;;;;86.22;23.48;;;8.70;99.90;;;;;;5100660;28;20163;-86
2022/10/19 04:43:17;;;;;;;77.80;21.07;;;8.70;99.90;;;;;;5083231;28;20216;-86
2022/10/19 04:45:43;;;;;;;87.90;24.40;;;8.70;99.90;;;;;;5082416;28;20167;-86
2022/10/19 04:48:09;;;;;;;81.27;24.00;;;8.80;99.90;;;;;;5082588;28;20194;-85
2022/10/19 04:50:35;;;;;;;121.13;26.23;;;8.80;99.90;;;;;;5100212;28;20159;-85
2022/10/19 04:53:00;;;;;;;83.63;23.23;;;8.80;99.90;;;;;;5099362;28;20168;-85
2022/10/19 04:55:26;;;;;;;86.00;24.97;;;8.80;99.90;;;;;;5081809;28;20235;-86
2022/10/19 04:57:52;;;;;;;97.83;23.67;;;8.80;99.90;;;;;;5081260;28;20171;-86
2022/10/19 05:00:17;;;;;;;83.60;20.87;;;8.80;99.90;;;;;;5101017;28;20223;-86
2022/10/19 05:02:46;;;;;;;107.43;23.00;;;8.80;99.90;;;;;;5100540;28;20251;-86
2022/10/19 05:05:13;;;;;;;83.25;19.73;;;8.80;99.90;;;;;;5100740;28;20401;-86
2022/10/19 05:07:39;;;;;;;86.22;19.88;;;8.80;99.90;;;;;;5101163;28;20186;-85
2022/10/19 05:10:09;;;;;;;72.90;15.65;;;8.70;99.90;;;;;;5082614;28;20187;-86
2022/10/19 05:12:35;;;;;;;110.03;17.95;;;8.80;99.90;;;;;;5101431;28;20187;-86
2022/10/19 05:18:08;;;;;;;76.03;20.63;;;8.70;99.90;;;;;;5115118;28;20757;-88
2022/10/19 05:24:31;;;;;;;91.88;18.58;;;8.70;99.90;;;;;;5092741;28;20212;-88
2022/10/19 05:30:37;;;;;;;86.85;17.17;;;8.70;99.90;;;;;;5086154;28;20685;-89
2022/10/19 05:33:15;;;;;;;102.47;17.48;;;8.70;99.90;;;;;;4992130;28;20178;-89
2022/10/19 05:36:51;;;;;;;84.53;17.95;;;8.70;99.90;;;;;;4975995;28;20179;-89
2022/10/19 05:39:32;;;;;;;84.13;19.23;;;8.70;99.90;;;;;;5091960;28;20195;-88
2022/10/19 05:42:27;;;;;;;88.72;16.00;;;8.80;99.90;;;;;;5076993;28;20170;-88
2022/10/19 05:45:27;;;;;;;83.60;16.50;;;8.70;99.90;;;;;;5083911;28;20175;-88
2022/10/19 05:48:35;;;;;;;81.07;17.67;;;8.60;99.90;;;;;;5093519;28;20178;-89
2022/10/19 05:54:34;;;;;;;80.28;17.88;;;8.60;99.90;;;;;;5094941;28;20198;-88
2022/10/19 05:57:12;;;;;;;78.35;17.10;;;8.60;99.90;;;;;;5076158;28;20603;-88
2022/10/19 06:00:00;;;;;;;;;;;;;;;;;;;;;
2022/10/19 06:02:50;;;;;;;78.35;15.15;;;8.60;99.90;;;;;;5094581;28;20138;-88
2022/10/19 06:05:38;;;;;;;77.18;15.65;;;8.50;99.90;;;;;;5076399;28;20630;-88
2022/10/19 06:08:15;;;;;;;95.95;19.60;;;8.50;99.90;;;;;;5076676;28;20156;-88
2022/10/19 06:11:01;;;;;;;105.60;22.75;;;8.50;99.90;;;;;;5075003;28;20584;-88
2022/10/19 06:13:37;;;;;;;;;;;;;;;;;;;;;
2022/10/19 06:16:13;;;;;;;85.03;19.75;;;8.60;99.90;;;;;;5094035;28;20189;-88
2022/10/19 06:18:53;;;;;;;100.40;21.77;;;8.60;99.90;;;;;;5099336;22;20210;-88
2022/10/19 06:21:27;;;;;;;92.82;22.75;;;8.60;99.90;;;;;;5092432;28;20665;-88
2022/10/19 06:24:32;;;;;;;91.90;22.58;;;8.60;99.90;;;;;;5065906;28;20175;-88
2022/10/19 06:27:24;;;;;;;97.82;21.30;;;8.60;99.90;;;;;;5075574;28;20174;-88
2022/10/19 06:32:49;;;;;;;80.00;23.27;;;8.70;99.90;;;;;;5041765;28;20172;-88
2022/10/19 06:35:32;;;;;;;103.72;23.52;;;8.70;99.90;;;;;;5055889;28;20199;-88
2022/10/19 06:38:01;;;;;;;91.93;25.58;;;8.90;99.90;;;;;;5073193;28;20520;-88
2022/10/19 06:40:27;;;;;;;85.75;18.13;;;9.00;99.90;;;;;;5050460;28;20206;-88
2022/10/19 06:42:55;;;;;;;83.70;17.00;;;9.00;99.90;;;;;;5073295;28;20655;-87
2022/10/19 06:45:20;;;;;;;107.35;24.02;;;8.80;99.90;;;;;;5073096;28;20406;-88
2022/10/19 06:47:51;;;;;;;115.33;19.60;;;8.70;99.90;;;;;;5073028;28;20246;-87
2022/10/19 06:50:19;;;;;;;98.13;23.58;;;8.80;99.90;;;;;;5073390;28;20205;-87
2022/10/19 06:52:45;;;;;;;99.70;21.20;;;8.90;99.90;;;;;;5055678;28;20582;-88
2022/10/19 06:55:11;;;;;;;94.72;24.40;;;8.80;99.90;;;;;;5073207;28;20180;-88
2022/10/19 06:57:37;;;;;;;96.38;30.38;;;8.90;99.90;;;;;;5056076;28;20217;-88
2022/10/19 07:00:05;;;;;;;98.57;30.53;;;8.90;99.90;;;;;;5071585;28;20266;-88
2022/10/19 07:02:34;;;;;;;101.78;35.95;;;8.90;99.90;;;;;;5054881;28;20168;-88
2022/10/19 07:04:59;;;;;;;88.60;31.52;;;8.90;99.90;;;;;;5054882;28;20168;-90
2022/10/19 07:07:25;;;;;;;96.77;29.83;;;8.80;99.90;;;;;;5054950;28;20163;-88
2022/10/19 07:09:52;;;;;;;108.50;33.53;;;8.90;99.90;;;;;;5055156;28;20276;-88
2022/10/19 07:12:20;;;;;;;94.03;35.63;;;8.90;99.90;;;;;;5054883;28;20535;-88
2022/10/19 07:14:46;;;;;;;94.60;32.22;;;9.00;99.90;;;;;;5072962;28;20244;-88
2022/10/19 07:17:12;;;;;;;86.10;32.83;;;9.00;99.90;;;;;;5054808;28;20175;-87
2022/10/19 07:19:38;;;;;;;82.90;32.40;;;9.00;99.90;;;;;;5054570;28;20277;-88
2022/10/19 07:22:04;;;;;;;95.77;35.57;;;9.10;99.90;;;;;;5072827;28;20164;-88
2022/10/19 07:24:33;;;;;;;85.20;30.80;;;9.10;99.90;;;;;;5073208;28;20213;-88
2022/10/19 07:26:58;;;;;;;85.07;30.73;;;9.30;99.90;;;;;;5055503;28;20634;-88
2022/10/19 07:29:35;;;;;;;95.10;33.00;;;9.20;99.90;;;;;;5072840;28;20267;-88
2022/10/19 07:32:01;;;;;;;87.10;31.48;;;9.30;99.90;;;;;;5053858;28;20191;-88
2022/10/19 07:34:27;;;;;;;83.97;29.60;;;9.20;99.90;;;;;;5054595;28;20562;-88
2022/10/19 07:36:59;;;;;;;86.17;31.17;;;9.30;99.90;;;;;;5072909;28;20195;-87
2022/10/19 07:39:36;;;;;;;87.80;35.30;;;9.40;99.90;;;;;;5073736;28;20179;-88
2022/10/19 07:42:02;;;;;;;86.80;28.75;;;9.50;99.90;;;;;;5076587;28;20504;-88
2022/10/19 07:44:28;;;;;;;87.90;32.20;;;9.50;99.90;;;;;;5058657;28;20171;-88
2022/10/19 07:46:53;;;;;;;91.43;32.73;;;9.40;99.90;;;;;;5076234;28;20429;-88
2022/10/19 07:49:40;;;;;;;84.17;29.80;;;9.50;99.90;;;;;;5075959;28;20205;-89
2022/10/19 07:52:09;;;;;;;82.35;29.23;;;9.60;99.90;;;;;;5058747;28;20645;-88
2022/10/19 07:54:40;;;;;;;82.53;31.98;;;9.60;99.90;;;;;;5075078;28;20200;-88
2022/10/19 07:57:14;;;;;;;83.45;28.42;;;9.70;99.90;;;;;;5059014;28;20639;-88
2022/10/19 07:59:39;;;;;;;85.90;34.17;;;9.70;99.90;;;;;;5076494;28;20176;-88
2022/10/19 08:02:17;;;;;;;87.40;31.67;;;9.70;99.90;;;;;;5057954;28;20187;-89
2022/10/19 08:04:45;;;;;;;84.75;29.80;;;9.70;99.90;;;;;;5056770;28;20206;-88
2022/10/19 08:07:11;;;;;;;84.18;30.65;;;9.60;99.90;;;;;;5076197;28;20226;-88
2022/10/19 08:09:37;;;;;;;87.67;31.07;;;9.60;99.90;;;;;;5074749;28;20308;-88
2022/10/19 08:12:08;;;;;;;81.20;29.10;;;9.80;99.90;;;;;;5075771;28;20924;-88
2022/10/19 08:14:34;;;;;;;82.22;32.97;;;9.70;99.90;;;;;;5057695;28;20203;-88
2022/10/19 08:17:03;;;;;;;82.90;32.67;;;9.70;99.90;;;;;;5057776;28;20559;-88
2022/10/19 08:19:29;;;;;;;82.45;28.05;;;9.70;99.90;;;;;;5075625;28;20312;-88
2022/10/19 08:21:55;;;;;;;80.90;29.57;;;9.70;99.90;;;;;;5075611;28;20168;-88
2022/10/19 08:24:20;;;;;;;86.87;32.47;;;9.60;99.90;;;;;;5057877;28;20199;-88
2022/10/19 08:26:49;;;;;;;85.30;29.87;;;9.70;99.90;;;;;;5057749;28;20917;-87
2022/10/19 08:29:21;;;;;;;85.68;28.83;;;9.70;99.90;;;;;;5057702;28;20187;-88
2022/10/19 08:31:48;;;;;;;85.72;32.67;;;9.70;99.90;;;;;;5075667;28;20144;-87
2022/10/19 08:34:22;;;;;;;83.13;31.48;;;9.70;99.90;;;;;;5057191;28;20195;-88
2022/10/19 08:36:53;;;;;;;86.40;31.02;;;9.70;99.90;;;;;;5075576;28;20223;-88
2022/10/19 08:39:42;;;;;;;83.28;29.38;;;9.80;99.90;;;;;;5075208;28;20532;-88
2022/10/19 08:42:26;;;;;;;81.22;29.73;;;9.80;99.90;;;;;;5044444;28;20551;-88
2022/10/19 08:45:28;;;;;;;82.40;29.75;;;9.80;99.90;;;;;;5075553;28;20174;-87
2022/10/19 08:48:12;;;;;;;79.47;28.65;;;9.90;99.90;;;;;;5057990;28;20167;-87
2022/10/19 08:50:42;;;;;;;80.75;25.40;;;10.00;99.90;;;;;;5074462;28;20160;-87
2022/10/19 08:53:46;;;;;;;77.55;26.70;;;10.10;99.90;;;;;;5057232;28;20218;-87
2022/10/19 08:56:33;;;;;;;84.90;26.33;;;10.00;99.90;;;;;;5070984;28;20175;-87
2022/10/19 08:59:16;;;;;;;79.38;25.63;;;10.20;99.90;;;;;;5057081;28;20270;-87
2022/10/19 09:01:45;;;;;;;78.55;26.45;;;10.20;99.90;;;;;;5075142;28;20201;-87
2022/10/19 09:04:35;;;;;;;81.97;32.47;;;10.30;99.90;;;;;;5056777;28;20194;-87
2022/10/19 09:07:07;;;;;;;76.40;23.30;;;10.30;99.90;;;;;;5074799;28;20152;-87
2022/10/19 09:09:41;;;;;;;78.07;27.67;;;10.40;99.90;;;;;;5074930;28;20190;-86
2022/10/19 09:12:11;;;;;;;76.05;24.05;;;10.50;99.90;;;;;;5074972;28;20184;-87
2022/10/19 09:14:56;;;;;;;80.38;22.23;;;10.60;99.90;;;;;;5074866;28;20183;-86
2022/10/19 09:17:24;;;;;;;76.38;22.33;;;10.70;99.90;;;;;;5074874;28;20187;-86
2022/10/19 09:19:50;;;;;;;81.00;23.83;;;10.60;99.90;;;;;;5056611;28;20203;-87
2022/10/19 09:22:28;;;;;;;78.75;21.55;;;10.70;99.90;;;;;;5074701;28;20566;-86
2022/10/19 09:25:02;;;;;;;78.88;23.98;;;10.70;99.90;;;;;;5074744;28;20519;-86
2022/10/19 09:27:48;;;;;;;80.00;26.10;;;10.80;99.90;;;;;;5056473;28;20254;-86
2022/10/19 09:30:20;;;;;;;78.15;19.85;;;10.90;99.90;;;;;;5056303;28;20578;-86
2022/10/19 09:32:48;;;;;;;83.40;22.77;;;11.00;99.90;;;;;;5056693;28;20168;-87
2022/10/19 09:35:19;;;;;;;75.45;19.67;;;11.00;99.90;;;;;;5074159;28;20206;-88
2022/10/19 09:37:48;;;;;;;77.50;17.17;;;11.10;99.90;;;;;;5056729;28;20215;-87
2022/10/19 09:40:21;;;;;;;75.63;13.90;;;11.20;99.90;;;;;;5056281;28;20183;-87
2022/10/19 09:42:56;;;;;;;81.60;16.70;;;11.50;99.90;;;;;;5056156;28;20167;-87
2022/10/19 09:45:32;;;;;;;82.55;13.98;;;11.70;99.90;;;;;;5056093;28;20163;-87
2022/10/19 09:48:01;;;;;;;75.38;15.02;;;11.70;99.90;;;;;;5073923;28;20144;-87
2022/10/19 09:50:29;;;;;;;80.13;19.80;;;12.00;99.90;;;;;;5074405;28;20164;-87
2022/10/19 09:52:56;;;;;;;78.32;22.30;;;12.10;99.90;;;;;;5073852;28;20635;-87
2022/10/19 09:55:41;;;;;;;80.47;19.67;;;12.30;99.90;;;;;;5056150;28;20227;-87
2022/10/19 09:58:12;;;;;;;80.72;20.23;;;12.40;99.90;;;;;;5073881;28;20156;-87
2022/10/19 10:00:44;;;;;;;76.65;23.30;;;12.50;99.90;;;;;;5055753;28;20164;-87
2022/10/19 10:03:34;;;;;;;79.30;25.25;;;12.70;99.90;;;;;;5074144;28;20163;-87
2022/10/19 10:06:09;;;;;;;77.40;27.48;;;12.80;99.90;;;;;;5073811;28;20144;-87
2022/10/19 10:08:49;;;;;;;76.22;19.05;;;12.80;99.90;;;;;;5073452;28;20187;-87
2022/10/19 10:11:27;;;;;;;82.97;21.63;;;13.10;99.90;;;;;;5074142;28;20512;-87
2022/10/19 10:13:55;;;;;;;78.83;23.77;;;13.20;99.90;;;;;;5073691;28;20547;-87
2022/10/19 10:16:32;;;;;;;82.57;25.53;;;13.10;99.90;;;;;;5055472;28;20493;-87
2022/10/19 10:19:11;;;;;;;85.22;25.65;;;13.00;99.90;;;;;;5073278;28;20417;-87
2022/10/19 10:21:56;;;;;;;83.20;24.40;;;13.10;99.90;;;;;;5039407;28;20270;-87
2022/10/19 10:24:25;;;;;;;79.00;24.87;;;13.10;99.90;;;;;;5056321;28;20160;-87
2022/10/19 10:26:56;;;;;;;78.25;24.75;;;13.10;99.90;;;;;;5073361;28;20417;-87
2022/10/19 10:29:33;;;;;;;77.50;21.27;;;13.30;99.90;;;;;;5055852;28;20223;-87
2022/10/19 10:32:04;;;;;;;83.35;20.60;;;13.40;99.90;;;;;;5055590;28;20925;-87
2022/10/19 10:34:40;;;;;;;75.28;17.77;;;13.40;99.90;;;;;;5056089;28;20195;-87
2022/10/19 10:37:12;;;;;;;75.27;20.87;;;13.40;99.90;;;;;;5073237;28;20189;-87
2022/10/19 10:39:42;;;;;;;81.30;19.70;;;13.40;99.90;;;;;;5073009;28;20517;-87
2022/10/19 10:42:26;;;;;;;74.17;18.97;;;13.50;99.90;;;;;;5073112;28;20160;-87
2022/10/19 10:44:55;;;;;;;72.73;16.40;;;13.50;99.90;;;;;;5073199;28;20855;-88
2022/10/19 10:47:25;;;;;;;80.17;20.90;;;13.50;99.90;;;;;;5055128;28;20824;-87
2022/10/19 10:50:05;;;;;;;74.13;16.77;;;13.60;99.90;;;;;;5073163;28;20510;-87
2022/10/19 10:52:32;;;;;;;74.38;16.67;;;13.90;99.90;;;;;;5073408;28;20469;-87
2022/10/19 10:55:09;;;;;;;77.40;15.70;;;14.00;99.90;;;;;;5055872;28;20195;-87
2022/10/19 10:57:40;;;;;;;75.07;15.10;;;13.90;99.90;;;;;;5073106;28;20825;-87
2022/10/19 11:00:15;;;;;;;80.57;15.90;;;13.90;99.90;;;;;;5071655;28;20422;-87
2022/10/19 11:03:21;;;;;;;80.77;15.50;;;14.00;99.90;;;;;;5073538;28;20447;-87
2022/10/19 11:05:54;;;;;;;76.47;15.27;;;14.10;99.90;;;;;;5073245;28;20485;-87
2022/10/19 11:08:32;;;;;;;74.57;12.27;;;14.20;99.90;;;;;;5055603;28;20428;-87
2022/10/19 11:11:29;;;;;;;72.90;12.40;;;14.30;99.90;;;;;;5055277;28;20401;-88
2022/10/19 11:14:00;;;;;;;70.93;12.07;;;14.40;99.90;;;;;;5032862;28;20453;-88
2022/10/19 11:16:39;;;;;;;74.23;11.30;;;14.50;99.90;;;;;;5167744;22;20499;-86
2022/10/19 11:19:34;;;;;;;71.97;9.67;;;14.60;99.90;;;;;;5119963;28;20466;-86
2022/10/19 11:22:34;;;;;;;77.07;10.27;;;14.70;99.90;;;;;;5083047;28;20404;-86
2022/10/19 11:25:25;;;;;;;76.23;11.23;;;14.80;99.90;;;;;;5119794;28;20395;-86
2022/10/19 11:27:53;;;;;;;69.90;10.07;;;14.70;99.90;;;;;;5119946;28;20369;-85
2022/10/19 11:30:59;;;;;;;83.87;9.90;;;14.80;99.90;;;;;;5120100;28;20392;-86
2022/10/19 11:33:39;;;;;;;74.97;10.93;;;14.80;99.90;;;;;;5088073;28;20400;-86
2022/10/19 11:36:20;;;;;;;74.67;10.23;;;14.70;99.90;;;;;;5101433;28;20934;-86
2022/10/19 11:39:16;;;;;;;71.30;10.73;;;14.80;99.90;;;;;;5120441;28;20416;-86
2022/10/19 11:42:12;;;;;;;70.80;8.13;;;14.90;99.90;;;;;;5102115;28;20974;-86
2022/10/19 11:45:02;;;;;;;75.40;7.97;;;15.00;99.90;;;;;;5120107;28;20382;-86
2022/10/19 11:47:50;;;;;;;70.50;7.57;;;15.10;99.90;;;;;;5120128;28;20380;-86
2022/10/19 11:50:37;;;;;;;72.13;6.97;;;15.30;99.90;;;;;;5111458;28;20428;-87
2022/10/19 11:53:28;;;;;;;72.20;7.60;;;15.40;99.90;;;;;;5111332;28;20495;-87
2022/10/19 11:56:06;;;;;;;74.30;7.10;;;15.30;99.90;;;;;;5111687;28;20416;-87
2022/10/19 11:58:36;;;;;;;70.67;7.20;;;15.50;99.90;;;;;;5111796;28;20408;-87
2022/10/19 12:01:14;;;;;;;81.13;8.43;;;15.60;99.90;;;;;;5109723;28;20432;-88
2022/10/19 12:04:02;;;;;;;74.17;8.27;;;15.70;99.90;;;;;;5125419;28;20361;-85
2022/10/19 12:06:42;;;;;;;77.90;8.37;;;15.70;99.90;;;;;;5121151;28;20401;-86
2022/10/19 12:09:35;;;;;;;72.90;7.87;;;15.70;99.90;;;;;;5120635;28;20776;-86
2022/10/19 12:12:22;;;;;;;72.07;8.20;;;15.60;99.90;;;;;;5120020;28;20759;-86
2022/10/19 12:14:52;;;;;;;73.77;8.00;;;15.60;99.90;;;;;;5121065;28;20423;-86
2022/10/19 12:17:24;;;;;;;73.60;8.13;;;15.70;99.90;;;;;;5103077;28;20495;-85
2022/10/19 12:19:55;;;;;;;71.87;8.23;;;15.70;99.90;;;;;;5103889;28;20515;-86
2022/10/19 12:22:25;;;;;;;68.77;7.20;;;15.80;99.90;;;;;;5104539;28;20398;-87
2022/10/19 12:24:56;;;;;;;69.70;8.00;;;15.90;99.90;;;;;;5110085;28;20399;-88
2022/10/19 12:27:44;;;;;;;72.17;7.53;;;15.90;99.90;;;;;;5127445;28;20381;-88
2022/10/19 12:30:38;;;;;;;81.03;7.40;;;15.90;99.90;;;;;;5128581;28;20437;-88
2022/10/19 12:33:41;;;;;;;69.80;7.10;;;16.00;99.90;;;;;;5124427;28;20405;-87
2022/10/19 12:36:49;;;;;;;69.87;6.70;;;15.90;99.90;;;;;;5009142;28;20945;-87
2022/10/19 12:39:29;;;;;;;69.80;8.23;;;15.90;99.90;;;;;;5099334;28;20833;-88
2022/10/19 12:42:03;;;;;;;71.90;7.50;;;15.80;99.90;;;;;;5109741;28;20396;-86
2022/10/19 12:45:02;;;;;;;69.37;8.80;;;15.80;99.90;;;;;;5128315;28;20373;-87
2022/10/19 12:47:27;;;;;;;72.27;7.80;;;15.80;99.90;;;;;;5109205;28;20449;-88
2022/10/19 12:49:54;;;;;;;72.03;7.93;;;15.90;99.90;;;;;;5108993;28;20857;-86
2022/10/19 12:52:51;;;;;;;77.10;8.47;;;15.90;99.90;;;;;;5124283;28;20255;-85
2022/10/19 12:55:16;;;;;;;72.50;7.40;;;16.00;99.90;;;;;;5120611;28;20433;-85
2022/10/19 12:57:47;;;;;;;71.17;6.93;;;16.00;99.90;;;;;;5122122;28;20407;-87
2022/10/19 13:00:29;;;;;;;72.27;7.17;;;16.00;99.90;;;;;;5104204;28;20190;-85
2022/10/19 13:03:23;;;;;;;68.20;6.80;;;16.00;99.90;;;;;;5119033;28;20404;-86
2022/10/19 13:06:00;;;;;;;70.63;6.93;;;16.10;99.90;;;;;;5100459;28;20405;-86
2022/10/19 13:08:43;;;;;;;74.10;7.80;;;16.10;99.90;;;;;;5118774;28;20426;-86
2022/10/19 13:11:13;;;;;;;70.60;7.27;;;16.20;99.90;;;;;;5100248;28;20413;-86
2022/10/19 13:13:51;;;;;;;74.37;7.90;;;16.10;99.90;;;;;;5118925;28;20823;-86
2022/10/19 13:16:38;;;;;;;70.77;8.30;;;16.30;99.90;;;;;;5100199;28;20489;-86
2022/10/19 13:19:13;;;;;;;75.30;9.83;;;16.20;99.90;;;;;;5100326;28;20424;-85
2022/10/19 13:21:58;;;;;;;74.60;8.63;;;16.10;99.90;;;;;;5101115;28;20782;-86
2022/10/19 13:24:24;;;;;;;71.10;8.53;;;16.10;99.90;;;;;;5119289;28;20386;-86
2022/10/19 13:27:26;;;;;;;70.00;8.23;;;16.10;99.90;;;;;;5101044;28;20439;-85